createdAt,value
2023-10-29T00:00:37.787Z,16.02
2023-10-29T00:03:07.406Z,15.98
2023-10-29T00:05:36.706Z,15.98
2023-10-29T00:08:04.408Z,16.02
2023-10-29T00:10:32.241Z,16.12
2023-10-29T00:13:02.024Z,16.03
2023-10-29T00:15:29.803Z,16.13
2023-10-29T00:17:57.598Z,16.08
2023-10-29T00:20:25.665Z,16.13
2023-10-29T00:22:54.892Z,16.12
2023-10-29T00:25:22.781Z,14.84
2023-10-29T00:27:50.502Z,16.19
2023-10-29T00:30:18.983Z,16.23
2023-10-29T00:32:46.824Z,16.18
2023-10-29T00:35:14.818Z,16.32
2023-10-29T00:37:42.662Z,16.32
2023-10-29T00:40:12.706Z,16.35
2023-10-29T00:42:40.431Z,16.40
2023-10-29T00:45:09.136Z,16.41
2023-10-29T00:47:36.960Z,16.48
2023-10-29T00:50:05.284Z,16.52
2023-10-29T00:52:33.308Z,16.57
2023-10-29T00:55:01.041Z,16.63
2023-10-29T00:57:30.439Z,16.62
2023-10-29T00:59:58.250Z,16.63
2023-10-29T01:02:26.358Z,16.57
2023-10-29T01:04:54.284Z,16.59
2023-10-29T01:07:22.063Z,16.65
2023-10-29T01:09:51.402Z,16.66
2023-10-29T01:12:19.524Z,16.48
2023-10-29T01:14:48.930Z,16.59
2023-10-29T01:17:18.364Z,16.57
2023-10-29T01:19:46.085Z,16.61
2023-10-29T01:22:13.826Z,16.64
2023-10-29T01:24:41.627Z,16.62
2023-10-29T01:27:10.758Z,16.62
2023-10-29T01:29:38.510Z,16.62
2023-10-29T01:32:08.183Z,16.69
2023-10-29T01:34:36.203Z,16.74
2023-10-29T01:37:05.287Z,16.72
2023-10-29T01:39:33.034Z,16.83
2023-10-29T01:42:01.101Z,16.85
2023-10-29T01:44:28.989Z,16.87
2023-10-29T01:46:56.898Z,16.92
2023-10-29T01:49:26.053Z,16.94
2023-10-29T01:51:53.790Z,16.96
2023-10-29T01:54:21.818Z,16.72
2023-10-29T01:56:49.570Z,16.84
2023-10-29T01:59:17.365Z,16.88
2023-10-29T02:01:46.478Z,16.86
2023-10-29T02:04:14.382Z,16.75
2023-10-29T02:06:43.797Z,16.80
2023-10-29T02:09:11.634Z,16.83
2023-10-29T02:11:40.013Z,16.58
2023-10-29T02:14:07.870Z,16.90
2023-10-29T02:16:35.593Z,16.89
2023-10-29T02:19:04.534Z,16.87
2023-10-29T02:21:32.465Z,16.93
2023-10-29T02:24:02.443Z,16.80
2023-10-29T02:26:30.421Z,16.76
2023-10-29T02:28:58.384Z,16.63
2023-10-29T02:31:26.502Z,16.57
2023-10-29T02:33:54.745Z,16.56
2023-10-29T02:36:22.460Z,16.47
2023-10-29T02:38:50.469Z,16.20
2023-10-29T02:41:19.657Z,16.38
2023-10-29T02:43:47.482Z,16.16
2023-10-29T02:46:15.380Z,15.02
2023-10-29T02:48:43.170Z,16.31
2023-10-29T02:51:13.220Z,16.07
2023-10-29T02:53:41.222Z,16.29
2023-10-29T02:56:09.033Z,16.35
2023-10-29T02:58:38.231Z,15.55
2023-10-29T03:01:07.020Z,16.63
2023-10-29T03:03:35.019Z,16.37
2023-10-29T03:06:05.303Z,16.68
2023-10-29T03:08:33.294Z,15.79
2023-10-29T03:11:01.676Z,15.53
2023-10-29T03:13:29.543Z,16.17
2023-10-29T03:15:58.932Z,15.86
2023-10-29T03:18:26.935Z,15.80
2023-10-29T03:20:54.947Z,16.06
2023-10-29T03:23:25.078Z,16.93
2023-10-29T03:25:52.962Z,15.94
2023-10-29T03:28:20.931Z,16.28
2023-10-29T03:30:48.821Z,15.67
2023-10-29T03:33:18.214Z,16.15
2023-10-29T03:35:46.318Z,16.97
2023-10-29T03:38:14.078Z,16.17
2023-10-29T03:40:42.044Z,14.35
2023-10-29T03:43:10.550Z,15.75
2023-10-29T03:45:38.466Z,16.91
2023-10-29T03:48:06.693Z,17.06
2023-10-29T03:50:36.067Z,16.25
2023-10-29T03:53:04.124Z,16.11
2023-10-29T03:55:34.034Z,16.00
2023-10-29T03:58:02.048Z,16.50
2023-10-29T04:00:29.986Z,15.85
2023-10-29T04:02:58.028Z,15.11
2023-10-29T04:05:26.135Z,16.06
2023-10-29T04:07:55.601Z,15.45
2023-10-29T04:10:23.477Z,15.93
2023-10-29T04:12:51.336Z,16.50
2023-10-29T04:15:19.258Z,16.45
2023-10-29T04:17:48.437Z,17.27
2023-10-29T04:20:16.502Z,15.74
2023-10-29T04:22:44.557Z,16.85
2023-10-29T04:25:13.879Z,16.36
2023-10-29T04:27:41.781Z,17.32
2023-10-29T04:30:10.540Z,15.99
2023-10-29T04:32:38.490Z,17.34
2023-10-29T04:35:07.793Z,16.41
2023-10-29T04:37:35.820Z,17.12
2023-10-29T04:40:04.387Z,17.44
2023-10-29T04:42:34.213Z,17.13
2023-10-29T04:45:02.172Z,15.52
2023-10-29T04:47:30.256Z,15.35
2023-10-29T04:49:58.228Z,16.28
2023-10-29T04:52:26.203Z,16.89
2023-10-29T04:54:54.204Z,17.24
2023-10-29T04:57:22.602Z,17.17
2023-10-29T04:59:53.462Z,16.71
2023-10-29T05:02:23.128Z,17.70
2023-10-29T05:04:51.014Z,16.85
2023-10-29T05:07:19.092Z,17.35
2023-10-29T05:09:47.607Z,16.71
2023-10-29T05:12:16.108Z,16.50
2023-10-29T05:14:44.010Z,17.11
2023-10-29T05:17:13.291Z,17.35
2023-10-29T05:19:41.304Z,16.89
2023-10-29T05:22:09.378Z,17.17
2023-10-29T05:24:37.237Z,16.17
2023-10-29T05:27:05.515Z,16.94
2023-10-29T05:29:33.789Z,17.88
2023-10-29T05:32:01.789Z,16.58
2023-10-29T05:34:31.112Z,17.15
2023-10-29T05:36:58.973Z,16.46
2023-10-29T05:39:26.777Z,18.01
2023-10-29T05:41:54.631Z,17.43
2023-10-29T05:44:22.614Z,16.75
2023-10-29T05:46:50.492Z,16.84
2023-10-29T05:49:18.336Z,17.18
2023-10-29T05:51:47.496Z,15.67
2023-10-29T05:54:15.663Z,17.96
2023-10-29T05:56:43.531Z,17.84
2023-10-29T05:59:11.896Z,17.44
2023-10-29T06:01:39.835Z,17.31
2023-10-29T06:04:07.961Z,16.80
2023-10-29T06:06:35.815Z,17.47
2023-10-29T06:09:17.146Z,17.32
2023-10-29T06:11:51.612Z,17.15
2023-10-29T06:14:19.473Z,16.88
2023-10-29T06:16:48.123Z,17.75
2023-10-29T06:19:15.992Z,17.39
2023-10-29T06:21:43.838Z,17.54
2023-10-29T06:24:13.775Z,16.10
2023-10-29T06:26:41.655Z,17.61
2023-10-29T06:29:09.966Z,17.71
2023-10-29T06:31:37.826Z,16.68
2023-10-29T06:34:05.900Z,17.57
2023-10-29T06:36:34.798Z,17.51
2023-10-29T06:39:02.707Z,18.16
2023-10-29T06:41:32.407Z,16.37
2023-10-29T06:44:00.161Z,16.49
2023-10-29T06:46:27.978Z,17.54
2023-10-29T06:48:55.918Z,17.33
2023-10-29T06:51:23.814Z,17.34
2023-10-29T06:53:51.800Z,18.23
2023-10-29T06:56:19.739Z,18.22
2023-10-29T06:58:49.016Z,18.20
2023-10-29T07:01:17.026Z,17.15
2023-10-29T07:03:45.211Z,18.28
2023-10-29T07:06:15.300Z,18.06
2023-10-29T07:08:43.304Z,17.08
2023-10-29T07:11:11.252Z,17.51
2023-10-29T07:13:39.690Z,16.74
2023-10-29T07:16:10.185Z,17.20
2023-10-29T07:18:38.318Z,17.79
2023-10-29T07:21:06.877Z,17.18
2023-10-29T07:23:35.229Z,18.45
2023-10-29T07:26:03.975Z,17.98
2023-10-29T07:28:32.384Z,16.70
2023-10-29T07:31:00.881Z,17.38
2023-10-29T07:33:30.553Z,17.97
2023-10-29T07:35:58.905Z,18.56
2023-10-29T07:38:27.167Z,17.16
2023-10-29T07:40:55.498Z,18.55
2023-10-29T07:43:23.633Z,17.27
2023-10-29T07:45:53.737Z,17.65
2023-10-29T07:48:22.819Z,16.18
2023-10-29T07:50:56.000Z,17.90
2023-10-29T07:53:24.117Z,17.82
2023-10-29T07:55:52.171Z,17.77
2023-10-29T07:58:20.445Z,17.60
2023-10-29T08:00:48.924Z,18.05
2023-10-29T08:03:20.079Z,18.75
2023-10-29T08:05:53.698Z,17.73
2023-10-29T08:08:23.651Z,17.47
2023-10-29T08:10:50.884Z,19.08
2023-10-29T08:13:19.156Z,16.87
2023-10-29T08:15:47.487Z,18.60
2023-10-29T08:18:16.377Z,16.99
2023-10-29T08:20:44.430Z,18.33
2023-10-29T08:23:12.839Z,17.49
2023-10-29T08:25:43.421Z,19.34
2023-10-29T08:28:11.758Z,18.78
2023-10-29T08:30:39.767Z,17.32
2023-10-29T08:33:07.808Z,17.75
2023-10-29T08:35:35.938Z,17.88
2023-10-29T08:38:03.990Z,18.42
2023-10-29T08:40:32.325Z,18.09
2023-10-29T08:43:01.986Z,17.63
2023-10-29T08:48:04.349Z,19.90
2023-10-29T08:50:32.156Z,19.94
2023-10-29T08:52:59.836Z,19.93
2023-10-29T08:55:28.322Z,19.94
2023-10-29T08:57:56.018Z,19.90
2023-10-29T09:00:30.403Z,19.85
2023-10-29T09:03:03.387Z,19.77
2023-10-29T09:05:31.205Z,19.74
2023-10-29T09:07:59.006Z,19.63
2023-10-29T09:10:27.896Z,19.56
2023-10-29T09:12:56.285Z,19.55
2023-10-29T09:15:25.942Z,19.52
2023-10-29T09:17:54.100Z,19.50
2023-10-29T09:20:22.477Z,19.48
2023-10-29T09:22:51.227Z,19.41
2023-10-29T09:25:18.965Z,19.43
2023-10-29T09:27:48.431Z,19.37
2023-10-29T09:30:16.446Z,19.43
2023-10-29T09:32:45.983Z,19.53
2023-10-29T09:35:14.774Z,19.61
2023-10-29T09:37:43.964Z,19.78
2023-10-29T09:40:15.363Z,19.75
2023-10-29T09:42:47.320Z,19.64
2023-10-29T09:45:17.099Z,19.72
2023-10-29T09:47:46.509Z,19.69
2023-10-29T09:50:14.319Z,19.70
2023-10-29T09:52:42.253Z,19.59
2023-10-29T09:55:10.599Z,19.63
2023-10-29T09:57:38.446Z,19.56
2023-10-29T10:00:10.973Z,19.50
2023-10-29T10:02:52.744Z,19.61
2023-10-29T10:05:21.000Z,19.83
2023-10-29T10:07:48.798Z,21.39
2023-10-29T10:10:16.564Z,23.72
2023-10-29T10:12:48.276Z,25.05
2023-10-29T10:15:16.435Z,25.96
2023-10-29T10:17:48.387Z,27.06
2023-10-29T10:20:18.443Z,27.68
2023-10-29T10:22:46.199Z,27.48
2023-10-29T10:25:19.195Z,26.49
2023-10-29T10:27:50.815Z,25.46
2023-10-29T10:30:31.325Z,24.76
2023-10-29T10:33:12.524Z,25.12
2023-10-29T10:35:43.068Z,25.06
2023-10-29T10:38:10.832Z,24.48
2023-10-29T10:40:39.106Z,24.07
2023-10-29T10:43:07.432Z,23.52
2023-10-29T10:45:36.297Z,23.03
2023-10-29T10:48:06.204Z,22.68
2023-10-29T10:50:35.641Z,22.42
2023-10-29T10:53:05.390Z,22.16
2023-10-29T10:58:04.405Z,21.63
2023-10-29T11:00:33.541Z,21.01
2023-10-29T11:03:01.613Z,21.08
2023-10-29T11:05:34.665Z,20.86
2023-10-29T11:08:03.911Z,20.77
2023-10-29T11:10:31.794Z,20.62
2023-10-29T11:13:18.295Z,20.55
2023-10-29T11:15:47.378Z,20.52
2023-10-29T11:18:15.213Z,20.42
2023-10-29T11:21:00.603Z,20.38
2023-10-29T11:23:30.518Z,20.21
2023-10-29T11:26:23.195Z,20.31
2023-10-29T11:28:52.590Z,20.08
2023-10-29T11:31:20.859Z,20.28
2023-10-29T11:33:49.110Z,20.22
2023-10-29T11:36:36.067Z,20.21
2023-10-29T11:39:33.344Z,20.20
2023-10-29T11:42:01.760Z,20.21
2023-10-29T11:44:30.776Z,20.15
2023-10-29T11:47:05.923Z,20.13
2023-10-29T11:50:17.517Z,20.00
2023-10-29T11:52:44.311Z,19.96
2023-10-29T11:55:14.139Z,19.81
2023-10-29T11:57:47.190Z,19.80
2023-10-29T12:00:16.078Z,19.76
2023-10-29T12:02:47.334Z,19.57
2023-10-29T12:05:16.323Z,19.38
2023-10-29T12:07:44.267Z,19.22
2023-10-29T12:10:13.376Z,19.14
2023-10-29T12:12:42.632Z,19.11
2023-10-29T12:15:16.948Z,19.10
2023-10-29T12:17:45.759Z,18.79
2023-10-29T12:20:22.538Z,19.04
2023-10-29T12:22:54.736Z,18.94
2023-10-29T12:25:24.085Z,18.92
2023-10-29T12:27:51.887Z,19.00
2023-10-29T12:30:41.620Z,19.01
2023-10-29T12:33:22.728Z,19.03
2023-10-29T12:35:51.936Z,18.59
2023-10-29T12:38:20.105Z,19.01
2023-10-29T12:41:09.476Z,19.00
2023-10-29T12:43:38.278Z,19.04
2023-10-29T12:46:06.286Z,19.20
2023-10-29T12:48:34.491Z,19.21
2023-10-29T12:51:03.494Z,19.16
2023-10-29T12:53:32.459Z,19.03
2023-10-29T12:56:00.858Z,19.16
2023-10-29T12:58:30.470Z,19.13
2023-10-29T13:01:01.474Z,19.15
2023-10-29T13:03:29.587Z,19.08
2023-10-29T13:05:57.587Z,19.04
2023-10-29T13:08:26.643Z,19.01
2023-10-29T13:10:54.672Z,18.80
2023-10-29T13:13:24.519Z,18.97
2023-10-29T13:15:54.180Z,18.94
2023-10-29T13:18:22.115Z,18.96
2023-10-29T13:20:50.357Z,18.98
2023-10-29T13:23:18.398Z,19.08
2023-10-29T13:25:47.236Z,18.85
2023-10-29T13:28:15.357Z,19.10
2023-10-29T13:30:43.629Z,19.11
2023-10-29T13:33:12.893Z,19.20
2023-10-29T13:35:41.227Z,19.27
2023-10-29T13:38:09.611Z,19.14
2023-10-29T13:40:39.240Z,19.25
2023-10-29T13:43:07.376Z,19.25
2023-10-29T13:45:35.537Z,19.19
2023-10-29T13:48:05.615Z,19.20
2023-10-29T13:50:38.262Z,19.15
2023-10-29T13:53:06.010Z,19.19
2023-10-29T13:55:34.101Z,19.21
2023-10-29T13:58:02.273Z,19.30
2023-10-29T14:00:30.621Z,19.36
2023-10-29T14:02:58.693Z,19.35
2023-10-29T14:05:26.553Z,19.32
2023-10-29T14:07:58.647Z,19.28
2023-10-29T14:10:26.495Z,19.27
2023-10-29T14:12:54.352Z,19.21
2023-10-29T14:15:22.289Z,19.27
2023-10-29T14:17:50.263Z,19.25
2023-10-29T14:20:18.047Z,19.23
2023-10-29T14:22:47.059Z,19.23
2023-10-29T14:25:18.904Z,19.24
2023-10-29T14:27:46.630Z,19.26
2023-10-29T14:30:15.292Z,19.23
2023-10-29T14:32:44.575Z,19.26
2023-10-29T14:35:13.866Z,19.27
2023-10-29T14:37:41.701Z,19.25
2023-10-29T14:40:18.000Z,19.21
2023-10-29T14:42:48.365Z,19.21
2023-10-29T14:45:16.467Z,19.10
2023-10-29T14:47:44.316Z,19.21
2023-10-29T14:50:12.224Z,19.15
2023-10-29T14:52:40.490Z,19.20
2023-10-29T14:55:09.839Z,19.14
2023-10-29T14:57:39.364Z,19.21
2023-10-29T15:00:08.602Z,19.22
2023-10-29T15:02:36.402Z,19.23
2023-10-29T15:05:05.408Z,19.27
2023-10-29T15:07:33.255Z,19.20
2023-10-29T15:10:01.487Z,19.29
2023-10-29T15:12:29.205Z,19.29
2023-10-29T15:15:01.057Z,19.27
2023-10-29T15:17:28.970Z,19.31
2023-10-29T15:19:58.789Z,19.31
2023-10-29T15:22:27.333Z,19.27
2023-10-29T15:24:55.330Z,19.31
2023-10-29T15:27:32.419Z,17.96
2023-10-29T15:30:02.272Z,17.56
2023-10-29T15:32:30.179Z,17.38
2023-10-29T15:35:00.357Z,16.74
2023-10-29T15:37:28.805Z,16.04
2023-10-29T15:39:59.191Z,18.25
2023-10-29T15:42:27.023Z,19.23
2023-10-29T15:44:54.920Z,19.24
2023-10-29T15:47:26.573Z,19.23
2023-10-29T15:49:57.833Z,18.29
2023-10-29T15:52:25.695Z,18.86
2023-10-29T15:54:53.921Z,18.28
2023-10-29T15:57:24.242Z,16.42
2023-10-29T15:59:52.538Z,16.20
2023-10-29T16:02:20.861Z,18.59
2023-10-29T16:04:50.356Z,16.47
2023-10-29T16:07:18.351Z,16.99
2023-10-29T16:09:47.351Z,19.22
2023-10-29T16:12:21.784Z,18.48
2023-10-29T16:14:55.851Z,16.11
2023-10-29T16:17:46.185Z,19.15
2023-10-29T16:22:58.130Z,18.34
2023-10-29T16:25:26.172Z,17.70
2023-10-29T16:27:54.277Z,17.53
2023-10-29T16:30:26.279Z,17.73
2023-10-29T16:32:54.421Z,16.99
2023-10-29T16:35:24.469Z,18.67
2023-10-29T16:37:52.846Z,18.20
2023-10-29T16:40:20.934Z,18.00
2023-10-29T16:42:48.894Z,17.94
2023-10-29T16:45:19.476Z,16.41
2023-10-29T16:47:47.689Z,16.33
2023-10-29T16:50:15.846Z,17.53
2023-10-29T16:52:46.327Z,17.55
2023-10-29T16:55:16.606Z,17.08
2023-10-29T16:57:44.534Z,15.67
2023-10-29T17:00:36.914Z,15.88
2023-10-29T17:03:05.785Z,17.16
2023-10-29T17:05:38.849Z,17.87
2023-10-29T17:08:13.977Z,15.94
2023-10-29T17:10:41.941Z,15.98
2023-10-29T17:13:12.120Z,16.94
2023-10-29T17:15:40.012Z,17.83
2023-10-29T17:18:08.380Z,17.50
2023-10-29T17:20:36.259Z,17.77
2023-10-29T17:23:06.252Z,17.76
2023-10-29T17:25:37.727Z,16.29
2023-10-29T17:28:05.883Z,17.35
2023-10-29T17:30:34.040Z,17.17
2023-10-29T17:33:02.003Z,17.57
2023-10-29T17:35:31.425Z,17.16
2023-10-29T17:37:59.221Z,17.64
2023-10-29T17:40:28.097Z,17.35
2023-10-29T17:42:59.941Z,15.98
2023-10-29T17:45:30.522Z,17.20
2023-10-29T17:47:59.117Z,16.64
2023-10-29T17:50:27.209Z,17.49
2023-10-29T17:52:55.115Z,16.44
2023-10-29T17:55:26.263Z,16.74
2023-10-29T17:57:54.136Z,16.61
2023-10-29T18:00:24.935Z,17.46
2023-10-29T18:02:56.104Z,16.60
2023-10-29T18:05:24.475Z,16.10
2023-10-29T18:07:55.257Z,17.36
2023-10-29T18:10:23.824Z,17.34
2023-10-29T18:12:53.580Z,16.95
2023-10-29T18:15:23.978Z,16.26
2023-10-29T18:17:52.536Z,16.56
2023-10-29T18:20:20.649Z,16.79
2023-10-29T18:22:50.053Z,17.22
2023-10-29T18:25:18.019Z,17.02
2023-10-29T18:27:46.334Z,17.20
2023-10-29T18:30:16.616Z,16.19
2023-10-29T18:32:54.214Z,16.72
2023-10-29T18:35:22.414Z,14.89
2023-10-29T18:37:52.153Z,15.81
2023-10-29T18:40:20.034Z,15.04
2023-10-29T18:42:47.961Z,15.00
2023-10-29T18:45:15.815Z,14.83
2023-10-29T18:47:43.766Z,15.73
2023-10-29T18:50:13.327Z,17.07
2023-10-29T18:52:41.544Z,16.37
2023-10-29T18:55:10.085Z,14.78
2023-10-29T18:57:37.939Z,17.04
2023-10-29T19:00:08.296Z,16.42
2023-10-29T19:02:38.673Z,16.84
2023-10-29T19:05:07.259Z,16.81
2023-10-29T19:07:38.676Z,17.26
2023-10-29T19:10:07.751Z,16.87
2023-10-29T19:12:35.768Z,17.34
2023-10-29T19:15:04.556Z,14.50
2023-10-29T19:17:33.256Z,15.05
2023-10-29T19:20:02.573Z,17.19
2023-10-29T19:22:30.661Z,15.51
2023-10-29T19:25:00.315Z,17.29
2023-10-29T19:27:28.406Z,17.00
2023-10-29T19:29:56.671Z,14.95
2023-10-29T19:32:24.685Z,16.85
2023-10-29T19:34:53.546Z,16.08
2023-10-29T19:37:23.675Z,17.19
2023-10-29T19:39:51.838Z,17.56
2023-10-29T19:42:21.648Z,17.12
2023-10-29T19:44:49.929Z,17.55
2023-10-29T19:47:17.819Z,17.15
2023-10-29T19:49:45.912Z,15.62
2023-10-29T19:52:13.976Z,16.57
2023-10-29T19:54:41.825Z,15.54
2023-10-29T19:57:10.147Z,17.42
2023-10-29T19:59:51.731Z,17.26
2023-10-29T20:02:19.648Z,17.16
2023-10-29T20:04:51.945Z,17.60
2023-10-29T20:07:19.911Z,16.88
2023-10-29T20:09:47.943Z,16.18
2023-10-29T20:12:15.858Z,17.07
2023-10-29T20:14:43.754Z,15.77
2023-10-29T20:17:13.021Z,17.28
2023-10-29T20:19:42.258Z,14.20
2023-10-29T20:22:10.298Z,16.74
2023-10-29T20:24:38.167Z,15.09
2023-10-29T20:27:06.206Z,17.08
2023-10-29T20:29:35.191Z,16.90
2023-10-29T20:32:05.264Z,17.31
2023-10-29T20:34:35.112Z,17.28
2023-10-29T20:37:03.491Z,16.56
2023-10-29T20:39:31.380Z,16.78
2023-10-29T20:41:59.352Z,16.95
2023-10-29T20:44:27.305Z,16.45
2023-10-29T20:46:55.820Z,17.36
2023-10-29T20:49:23.710Z,16.33
2023-10-29T20:51:52.986Z,16.66
2023-10-29T20:54:20.869Z,16.74
2023-10-29T20:56:48.710Z,15.86
2023-10-29T20:59:16.594Z,17.01
2023-10-29T21:01:44.973Z,17.23
2023-10-29T21:04:12.896Z,15.10
2023-10-29T21:06:41.341Z,16.46
2023-10-29T21:09:12.439Z,16.20
2023-10-29T21:11:44.230Z,17.13
2023-10-29T21:14:14.195Z,13.79
2023-10-29T21:16:42.122Z,15.49
2023-10-29T21:19:12.384Z,15.98
2023-10-29T21:21:46.610Z,16.92
2023-10-29T21:24:15.886Z,16.91
2023-10-29T21:26:43.841Z,15.37
2023-10-29T21:29:11.963Z,16.28
2023-10-29T21:31:39.842Z,16.87
2023-10-29T21:34:07.759Z,15.35
2023-10-29T21:36:35.817Z,15.25
2023-10-29T21:39:05.888Z,16.77
2023-10-29T21:41:35.358Z,16.77
2023-10-29T21:44:03.573Z,15.95
2023-10-29T21:46:31.625Z,16.76
2023-10-29T21:48:59.965Z,15.81
2023-10-29T21:51:28.242Z,15.84
2023-10-29T21:53:56.079Z,16.16
2023-10-29T21:56:24.240Z,15.21
2023-10-29T21:58:54.024Z,15.20
2023-10-29T22:01:23.878Z,16.16
2023-10-29T22:03:52.234Z,15.03
2023-10-29T22:06:22.140Z,13.77
2023-10-29T22:08:52.608Z,15.00
2023-10-29T22:11:20.477Z,16.01
2023-10-29T22:13:49.406Z,16.23
2023-10-29T22:16:20.412Z,16.63
2023-10-29T22:18:48.439Z,16.61
2023-10-29T22:21:16.403Z,14.34
2023-10-29T22:23:44.566Z,16.24
2023-10-29T22:26:12.410Z,15.95
2023-10-29T22:28:40.495Z,16.14
2023-10-29T22:31:08.426Z,13.67
2023-10-29T22:33:40.775Z,15.57
2023-10-29T22:36:09.219Z,15.52
2023-10-29T22:38:37.243Z,16.56
2023-10-29T22:41:05.859Z,16.46
2023-10-29T22:43:33.960Z,15.49
2023-10-29T22:46:01.848Z,14.78
2023-10-29T22:48:29.938Z,15.04
2023-10-29T22:51:02.435Z,16.61
2023-10-29T22:53:30.248Z,14.09
2023-10-29T22:56:00.133Z,15.98
2023-10-29T22:58:28.816Z,14.50
2023-10-29T23:00:56.798Z,16.58
2023-10-29T23:03:25.677Z,15.59
2023-10-29T23:05:53.763Z,14.88
2023-10-29T23:08:22.987Z,15.94
2023-10-29T23:10:50.822Z,16.14
2023-10-29T23:13:19.143Z,15.34
2023-10-29T23:15:46.858Z,15.55
2023-10-29T23:18:14.775Z,15.90
2023-10-29T23:20:42.538Z,15.53
2023-10-29T23:23:16.629Z,15.32
2023-10-29T23:25:46.323Z,15.44
2023-10-29T23:28:23.088Z,15.79
2023-10-29T23:30:58.738Z,15.78
2023-10-29T23:33:27.173Z,14.84
2023-10-29T23:35:55.326Z,16.31
2023-10-29T23:38:23.107Z,14.39
2023-10-29T23:40:52.360Z,15.73
2023-10-29T23:43:20.429Z,15.51
2023-10-29T23:45:48.967Z,14.53
2023-10-29T23:48:16.757Z,15.79
2023-10-29T23:50:44.865Z,16.44
2023-10-29T23:53:12.662Z,15.61
2023-10-29T23:55:40.570Z,14.99
2023-10-29T23:58:09.726Z,14.08
